Time;durP1;ratioP1;P1;durP2;ratioP2;P2;SDS_P1;SDS_P2;PMS_P1;PMS_P2;Temp;Humidity;BMP_temperature;BMP_pressure;BME280_temperature;BME280_humidity;BME280_pressure;Samples;Min_cycle;Max_cycle;Signal;HPM_P1;HPM_P2
2022/12/06 00:01:14;;;;;;;7.40;5.30;;;;;;;1.98;97.61;101084.07;103756;1296;70318;-74
2022/12/06 00:03:42;;;;;;;8.00;5.70;;;;;;;1.96;97.52;101082.33;103877;1290;73143;-74
2022/12/06 00:06:18;;;;;;;7.30;5.50;;;;;;;1.94;97.78;101084.14;104362;1292;60463;-73
2022/12/06 00:08:45;;;;;;;7.60;5.20;;;;;;;1.90;97.72;101085.66;104464;1286;60509;-73
2022/12/06 00:11:17;;;;;;;7.20;5.20;;;;;;;1.90;97.75;101087.76;104182;1293;71485;-74
2022/12/06 00:13:44;;;;;;;6.90;5.30;;;;;;;1.87;97.52;101088.31;104583;1291;71355;-74
2022/12/06 00:16:14;;;;;;;6.60;4.50;;;;;;;1.85;97.94;101087.61;105740;1286;72617;-74
2022/12/06 00:18:43;;;;;;;6.80;5.40;;;;;;;1.83;97.62;101081.63;105419;1292;61220;-74
2022/12/06 00:21:10;;;;;;;7.60;5.50;;;;;;;1.82;98.15;101082.38;105709;1290;59939;-75
2022/12/06 00:23:40;;;;;;;7.00;5.70;;;;;;;1.81;98.16;101081.80;105606;1286;72757;-74
2022/12/06 00:26:08;;;;;;;7.40;5.40;;;;;;;1.78;98.52;101081.45;104979;1296;69597;-74
2022/12/06 00:28:36;;;;;;;7.00;5.50;;;;;;;1.77;98.66;101076.09;105039;1294;72711;-74
2022/12/06 00:31:05;;;;;;;7.00;5.40;;;;;;;1.79;98.53;101075.81;105543;1287;60540;-74
2022/12/06 00:33:34;;;;;;;8.20;5.70;;;;;;;1.79;98.51;101075.83;105564;1293;59107;-74
2022/12/06 00:36:04;;;;;;;7.50;5.70;;;;;;;1.75;98.44;101077.12;105452;1289;72365;-74
2022/12/06 00:38:31;;;;;;;8.20;5.80;;;;;;;1.75;98.60;101072.96;105671;1292;69629;-74
2022/12/06 00:41:04;;;;;;;7.00;5.60;;;;;;;1.72;98.75;101070.05;105362;1296;71864;-74
2022/12/06 00:43:31;;;;;;;7.90;6.10;;;;;;;1.70;99.11;101070.86;105536;1286;61482;-74
2022/12/06 00:45:58;;;;;;;7.60;5.80;;;;;;;1.70;99.14;101068.65;104093;1293;60324;-74
2022/12/06 00:48:26;;;;;;;8.40;6.20;;;;;;;1.69;99.10;101070.41;103370;1302;74024;-73
2022/12/06 00:50:52;;;;;;;8.90;6.50;;;;;;;1.69;99.69;101066.92;103839;1295;69318;-73
2022/12/06 00:53:19;;;;;;;9.90;6.40;;;;;;;1.69;99.64;101063.13;104374;1299;60393;-73
2022/12/06 00:55:46;;;;;;;9.10;6.70;;;;;;;1.69;99.51;101065.21;103600;1295;62241;-74
2022/12/06 00:58:13;;;;;;;9.70;6.60;;;;;;;1.69;99.87;101062.79;104184;1291;60932;-74
2022/12/06 01:00:40;;;;;;;8.60;6.30;;;;;;;1.70;99.89;101063.59;104411;1296;73624;-74
2022/12/06 01:03:07;;;;;;;8.80;6.50;;;;;;;1.69;99.91;101066.41;104211;1293;72242;-74
2022/12/06 01:05:39;;;;;;;8.90;6.70;;;;;;;1.70;99.86;101064.61;103866;1301;71503;-75
2022/12/06 01:08:06;;;;;;;8.90;6.70;;;;;;;1.71;99.85;101062.09;103682;1299;60527;-75
2022/12/06 01:10:32;;;;;;;8.00;6.30;;;;;;;1.70;99.98;101066.51;103944;1299;60689;-75
2022/12/06 01:12:59;;;;;;;8.00;6.20;;;;;;;1.68;99.94;101064.20;103905;1295;60504;-75
2022/12/06 01:15:25;;;;;;;9.80;7.00;;;;;;;1.68;100.00;101062.66;103837;1294;60479;-74
2022/12/06 01:17:52;;;;;;;8.50;6.50;;;;;;;1.69;99.96;101061.38;104138;1292;60565;-75
2022/12/06 01:20:18;;;;;;;8.20;6.60;;;;;;;1.69;99.96;101058.36;104721;1294;59184;-72
2022/12/06 01:22:44;;;;;;;7.70;6.10;;;;;;;1.72;99.93;101059.73;104231;1292;60846;-75
2022/12/06 01:25:11;;;;;;;9.40;6.60;;;;;;;1.75;99.98;101059.20;103862;1291;59290;-75
2022/12/06 01:27:37;;;;;;;8.40;6.40;;;;;;;1.77;99.98;101063.75;103552;1296;61649;-75
2022/12/06 01:30:05;;;;;;;8.80;6.40;;;;;;;1.76;99.75;101063.10;103804;1294;60609;-74
2022/12/06 01:32:32;;;;;;;8.40;6.60;;;;;;;1.78;99.56;101060.15;104084;1291;60583;-75
2022/12/06 01:34:58;;;;;;;8.00;6.10;;;;;;;1.79;99.68;101060.10;104359;1286;60346;-73
2022/12/06 01:37:25;;;;;;;8.50;6.40;;;;;;;1.78;99.60;101059.48;104088;1301;60904;-73
2022/12/06 01:39:51;;;;;;;8.40;6.70;;;;;;;1.77;99.47;101052.63;104482;1291;60566;-73
2022/12/06 01:42:18;;;;;;;8.60;6.60;;;;;;;1.75;99.61;101056.23;104085;1298;59315;-74
2022/12/06 01:44:49;;;;;;;8.00;6.10;;;;;;;1.72;99.46;101052.11;103897;1293;60352;-73
2022/12/06 01:47:26;;;;;;;8.20;5.90;;;;;;;1.73;99.59;101053.75;103877;1297;60358;-74
2022/12/06 01:49:59;;;;;;;8.50;6.40;;;;;;;1.71;99.23;101044.50;104208;1293;72767;-74
2022/12/06 01:52:33;;;;;;;6.80;5.50;;;;;;;1.72;99.41;101043.73;104146;1293;69888;-74
2022/12/06 01:55:01;;;;;;;7.60;5.50;;;;;;;1.70;99.54;101040.23;103851;1297;70716;-74
2022/12/06 01:57:29;;;;;;;7.70;6.60;;;;;;;1.69;99.24;101041.67;104312;1293;201856;-74
2022/12/06 01:59:56;;;;;;;7.40;5.80;;;;;;;1.71;99.64;101039.45;103974;1299;61201;-74
2022/12/06 02:02:23;;;;;;;7.30;5.60;;;;;;;1.69;99.51;101037.49;104078;1291;73701;-74
2022/12/06 02:04:51;;;;;;;7.00;5.20;;;;;;;1.68;99.41;101034.40;103776;1285;70387;-74
2022/12/06 02:07:20;;;;;;;7.20;5.80;;;;;;;1.67;99.35;101036.55;103976;1293;71482;-74
2022/12/06 02:09:50;;;;;;;7.70;5.60;;;;;;;1.64;99.41;101036.42;104333;1291;61128;-74
2022/12/06 02:12:16;;;;;;;7.70;5.60;;;;;;;1.58;99.40;101033.52;104034;1292;61817;-74
2022/12/06 02:14:47;;;;;;;6.80;5.30;;;;;;;1.58;99.34;101030.20;103775;1301;59383;-74
2022/12/06 02:17:35;;;;;;;7.70;5.70;;;;;;;1.57;99.45;101022.80;103768;1298;69232;-72
2022/12/06 02:20:14;;;;;;;7.30;5.90;;;;;;;1.58;99.45;101023.76;103960;1299;70219;-74
2022/12/06 02:23:09;;;;;;;7.70;6.00;;;;;;;1.59;99.45;101019.34;104116;1299;60560;-74
2022/12/06 02:26:10;;;;;;;7.00;5.60;;;;;;;1.58;99.34;101017.13;103716;1293;60574;-74
2022/12/06 02:28:45;;;;;;;8.10;5.70;;;;;;;1.57;99.55;101013.38;104580;1298;73131;-75
2022/12/06 02:31:27;;;;;;;6.50;5.10;;;;;;;1.56;99.35;101013.79;104042;1291;71299;-75
2022/12/06 02:34:15;;;;;;;6.80;5.50;;;;;;;1.54;99.38;101010.98;103682;1300;72921;-75
2022/12/06 02:36:51;;;;;;;6.90;5.10;;;;;;;1.53;99.45;101012.27;104144;1300;60950;-75
2022/12/06 02:39:21;;;;;;;6.70;5.10;;;;;;;1.51;99.34;101012.95;103940;1286;60519;-74
2022/12/06 02:42:05;;;;;;;9.00;5.10;;;;;;;1.51;99.40;101013.80;103645;1297;73630;-75
2022/12/06 02:44:38;;;;;;;5.90;5.00;;;;;;;1.49;99.24;101010.48;104137;1291;69033;-73
2022/12/06 02:47:07;;;;;;;4.80;3.90;;;;;;;1.44;99.26;101010.65;104018;1301;70413;-74
2022/12/06 02:49:37;;;;;;;6.30;4.70;;;;;;;1.40;99.43;101012.00;103828;1300;61208;-73
2022/12/06 02:52:04;;;;;;;6.00;4.80;;;;;;;1.39;99.29;101009.41;104354;1301;59283;-74
2022/12/06 02:54:31;;;;;;;5.80;4.30;;;;;;;1.40;99.62;101007.64;104543;1290;72010;-74
2022/12/06 02:56:57;;;;;;;5.90;4.90;;;;;;;1.37;99.52;101007.67;103557;1297;71070;-74
2022/12/06 02:59:24;;;;;;;6.10;4.60;;;;;;;1.36;99.46;101006.87;104096;1290;60966;-74
2022/12/06 03:01:58;;;;;;;6.70;4.90;;;;;;;1.36;99.45;101007.70;103838;1302;60477;-74
2022/12/06 03:04:33;;;;;;;5.30;4.40;;;;;;;1.36;99.50;101007.54;104063;1299;60382;-74
2022/12/06 03:07:16;;;;;;;5.20;4.30;;;;;;;1.34;99.61;101006.11;104175;1290;71372;-74
2022/12/06 03:10:23;;;;;;;5.90;4.50;;;;;;;1.32;99.46;101001.52;103667;1300;71818;-74
2022/12/06 03:13:13;;;;;;;5.80;4.30;;;;;;;1.31;99.48;101003.21;104070;1299;70404;-74
2022/12/06 03:15:54;;;;;;;6.10;4.30;;;;;;;1.32;99.28;101002.28;103993;1283;60449;-74
2022/12/06 03:18:28;;;;;;;5.50;4.30;;;;;;;1.31;99.35;100999.06;104033;1299;59092;-74
2022/12/06 03:21:00;;;;;;;6.20;4.50;;;;;;;1.30;99.47;101001.14;103527;1301;72535;-73
2022/12/06 03:23:32;;;;;;;6.50;4.20;;;;;;;1.29;99.37;100998.95;104087;1299;71071;-73
2022/12/06 03:26:00;;;;;;;5.90;4.50;;;;;;;1.27;99.52;101001.05;104557;1299;72539;-74
2022/12/06 03:28:29;;;;;;;5.80;4.50;;;;;;;1.26;99.20;100999.90;105143;1302;60467;-74
2022/12/06 03:31:02;;;;;;;6.80;4.60;;;;;;;1.26;99.40;101001.47;104447;1292;60992;-74
2022/12/06 03:33:32;;;;;;;4.90;4.20;;;;;;;1.24;99.56;101001.08;104416;1296;72139;-74
2022/12/06 03:36:00;;;;;;;6.00;4.30;;;;;;;1.24;99.58;101003.69;104289;1292;69654;-73
2022/12/06 03:38:33;;;;;;;5.20;4.30;;;;;;;1.21;99.53;101001.05;104766;1292;72470;-74
2022/12/06 03:41:04;;;;;;;4.80;3.70;;;;;;;1.19;99.70;101001.04;103468;1296;60449;-73
2022/12/06 03:43:32;;;;;;;6.30;4.40;;;;;;;1.18;99.76;101003.05;104034;1292;60406;-74
2022/12/06 03:46:07;;;;;;;5.40;3.90;;;;;;;1.15;99.83;100999.04;104281;1292;73720;-74
2022/12/06 03:48:40;;;;;;;4.90;4.00;;;;;;;1.13;99.89;100997.27;104499;1296;70191;-74
2022/12/06 03:51:10;;;;;;;5.40;4.20;;;;;;;1.11;99.94;100997.60;103573;1300;71167;-74
2022/12/06 03:53:46;;;;;;;5.20;4.00;;;;;;;1.10;99.98;100991.59;103905;1300;62142;-74
2022/12/06 03:56:13;;;;;;;5.30;3.80;;;;;;;1.09;100.00;100989.91;104071;1293;60408;-73
2022/12/06 03:58:39;;;;;;;5.50;4.10;;;;;;;1.07;100.00;100987.96;103949;1299;72424;-74
2022/12/06 04:01:05;;;;;;;5.20;4.40;;;;;;;1.07;100.00;100982.24;103797;1301;60591;-73
2022/12/06 04:03:32;;;;;;;5.10;4.00;;;;;;;1.06;100.00;100978.10;103938;1290;60760;-73
2022/12/06 04:06:01;;;;;;;5.20;3.70;;;;;;;1.07;100.00;100974.89;104178;1301;60474;-73
2022/12/06 04:08:28;;;;;;;6.60;4.00;;;;;;;1.10;100.00;100977.50;104802;1291;58770;-73
2022/12/06 04:10:54;;;;;;;5.10;4.20;;;;;;;1.12;100.00;100974.52;103748;1291;60521;-73
2022/12/06 04:13:21;;;;;;;6.00;4.10;;;;;;;1.14;100.00;100974.73;104373;1293;60305;-74
2022/12/06 04:15:47;;;;;;;5.10;4.20;;;;;;;1.16;100.00;100975.79;103803;1294;60553;-73
2022/12/06 04:18:15;;;;;;;4.80;3.80;;;;;;;1.20;100.00;100978.50;104420;1296;60491;-73
2022/12/06 04:23:42;;;;;;;6.00;4.30;;;;;;;1.19;100.00;100971.46;104466;1294;73760;-74
2022/12/06 04:26:11;;;;;;;5.60;4.40;;;;;;;1.18;100.00;100973.42;104551;1292;72160;-74
2022/12/06 04:39:40;;;;;;;8.20;5.40;;;;;;;1.27;100.00;100963.11;104076;1301;70869;-74
2022/12/06 04:44:52;;;;;;;8.10;6.00;;;;;;;1.29;100.00;100957.34;104263;1300;60619;-74
2022/12/06 04:47:19;;;;;;;9.00;6.10;;;;;;;1.31;100.00;100956.36;104468;1301;60369;-74
2022/12/06 04:49:45;;;;;;;10.00;6.90;;;;;;;1.31;100.00;100953.22;103698;1293;72406;-74
2022/12/06 04:52:12;;;;;;;8.50;6.20;;;;;;;1.32;100.00;100949.80;104900;1299;62031;-74
2022/12/06 04:54:38;;;;;;;9.00;6.50;;;;;;;1.36;100.00;100950.71;103918;1291;60331;-74
2022/12/06 04:57:09;;;;;;;9.50;6.90;;;;;;;1.38;100.00;100947.60;104430;1292;59652;-74
2022/12/06 04:59:38;;;;;;;10.20;7.20;;;;;;;1.41;100.00;100946.23;104339;1302;60487;-74
2022/12/06 05:02:06;;;;;;;12.10;7.10;;;;;;;1.42;100.00;100948.91;105432;1295;74662;-74
2022/12/06 05:04:33;;;;;;;8.80;6.60;;;;;;;1.43;100.00;100946.91;105623;1283;70117;-74
2022/12/06 05:06:59;;;;;;;10.30;6.90;;;;;;;1.45;100.00;100944.52;105508;1296;73159;-74
2022/12/06 05:09:26;;;;;;;9.20;7.20;;;;;;;1.47;100.00;100942.44;105702;1286;58467;-74
2022/12/06 05:11:52;;;;;;;9.70;6.80;;;;;;;1.48;100.00;100942.39;105671;1293;58117;-74
2022/12/06 05:14:19;;;;;;;9.20;7.00;;;;;;;1.48;100.00;100948.31;104777;1292;60375;-74
2022/12/06 05:16:46;;;;;;;9.00;7.00;;;;;;;1.50;100.00;100948.33;104587;1301;69072;-74
2022/12/06 05:19:14;;;;;;;9.80;7.10;;;;;;;1.53;100.00;100944.45;104410;1294;59209;-73
2022/12/06 05:21:40;;;;;;;8.80;6.40;;;;;;;1.54;100.00;100948.44;104233;1301;61827;-74
2022/12/06 05:24:07;;;;;;;7.30;6.20;;;;;;;1.54;100.00;100947.67;103762;1300;60541;-74
2022/12/06 05:26:33;;;;;;;10.40;7.10;;;;;;;1.56;100.00;100944.92;103802;1299;72350;-74
2022/12/06 05:29:00;;;;;;;8.40;6.30;;;;;;;1.57;100.00;100944.34;104147;1298;71049;-74
2022/12/06 05:31:26;;;;;;;9.20;6.80;;;;;;;1.56;100.00;100945.79;104169;1290;60592;-74
2022/12/06 05:33:53;;;;;;;9.10;6.60;;;;;;;1.54;100.00;100940.92;103689;1302;60611;-74
2022/12/06 05:36:23;;;;;;;10.30;6.30;;;;;;;1.54;100.00;100941.07;103502;1296;60479;-74
2022/12/06 05:38:51;;;;;;;10.30;6.80;;;;;;;1.56;100.00;100938.88;104285;1291;73658;-74
2022/12/06 05:41:19;;;;;;;8.80;6.40;;;;;;;1.56;100.00;100940.45;104539;1294;70955;-74
2022/12/06 05:43:46;;;;;;;9.30;6.90;;;;;;;1.56;100.00;100935.02;104209;1296;70307;-74
2022/12/06 05:46:12;;;;;;;9.70;6.80;;;;;;;1.58;100.00;100933.63;103740;1299;61274;-74
2022/12/06 05:48:39;;;;;;;9.90;6.60;;;;;;;1.60;100.00;100932.44;104099;1300;61980;-75
2022/12/06 05:51:06;;;;;;;10.20;6.70;;;;;;;1.62;100.00;100928.27;104130;1290;72287;-74
2022/12/06 05:53:33;;;;;;;9.50;6.30;;;;;;;1.65;100.00;100930.91;103475;1295;70923;-74
2022/12/06 05:56:08;;;;;;;11.10;7.00;;;;;;;1.67;100.00;100929.54;103798;1292;72398;-74
2022/12/06 05:58:35;;;;;;;10.10;7.10;;;;;;;1.68;100.00;100931.19;104191;1302;60752;-75
2022/12/06 06:01:03;;;;;;;10.10;7.30;;;;;;;1.68;100.00;100925.63;104289;1291;60580;-75
2022/12/06 06:03:30;;;;;;;10.50;6.70;;;;;;;1.66;100.00;100923.65;103646;1301;73739;-74
2022/12/06 06:05:59;;;;;;;11.40;7.30;;;;;;;1.67;100.00;100922.73;103817;1295;70261;-74
2022/12/06 06:08:27;;;;;;;9.80;6.90;;;;;;;1.68;100.00;100928.08;105147;1294;71463;-75
2022/12/06 06:10:53;;;;;;;9.00;6.30;;;;;;;1.69;100.00;100923.48;104253;1292;59752;-75
2022/12/06 06:13:20;;;;;;;10.80;7.00;;;;;;;1.69;100.00;100922.95;103748;1291;60121;-74
2022/12/06 06:15:48;;;;;;;11.00;7.60;;;;;;;1.71;100.00;100922.95;104008;1295;72311;-74
2022/12/06 06:18:16;;;;;;;12.70;7.30;;;;;;;1.69;100.00;100922.38;104555;1293;71097;-75
2022/12/06 06:20:48;;;;;;;12.30;7.40;;;;;;;1.70;100.00;100924.11;103559;1299;72256;-74
2022/12/06 06:23:15;;;;;;;14.20;8.00;;;;;;;1.71;100.00;100923.84;103595;1297;60387;-74
2022/12/06 06:25:41;;;;;;;12.40;6.90;;;;;;;1.72;100.00;100920.30;105001;1292;60128;-73
2022/12/06 06:28:08;;;;;;;11.80;7.40;;;;;;;1.70;100.00;100922.39;104196;1290;59255;-72
2022/12/06 06:30:34;;;;;;;14.80;8.20;;;;;;;1.72;100.00;100919.40;103695;1292;60171;-72
2022/12/06 06:33:00;;;;;;;14.20;7.90;;;;;;;1.73;100.00;100919.80;104209;1295;60517;-72
2022/12/06 06:35:28;;;;;;;19.90;7.90;;;;;;;1.72;100.00;100917.83;103838;1299;60441;-72
2022/12/06 06:37:54;;;;;;;14.70;7.90;;;;;;;1.74;100.00;100914.37;103953;1293;60349;-72
2022/12/06 06:40:21;;;;;;;13.30;7.80;;;;;;;1.75;100.00;100916.02;104165;1298;59153;-72
2022/12/06 06:42:47;;;;;;;14.80;9.00;;;;;;;1.78;100.00;100911.08;103896;1296;60483;-72
2022/12/06 06:45:14;;;;;;;16.60;8.30;;;;;;;1.79;100.00;100909.79;104402;1292;60476;-73
2022/12/06 06:47:40;;;;;;;15.20;8.10;;;;;;;1.79;100.00;100910.67;104784;1293;59318;-72
2022/12/06 06:50:07;;;;;;;14.30;8.30;;;;;;;1.81;100.00;100912.46;103997;1297;61831;-72
2022/12/06 06:52:33;;;;;;;17.30;8.70;;;;;;;1.82;100.00;100914.83;103673;1300;60512;-72
2022/12/06 06:55:00;;;;;;;20.30;8.90;;;;;;;1.83;100.00;100916.80;104157;1296;60902;-72
2022/12/06 06:57:26;;;;;;;16.00;7.90;;;;;;;1.83;100.00;100913.16;104968;1293;60190;-72
2022/12/06 06:59:52;;;;;;;25.30;9.20;;;;;;;1.84;100.00;100917.27;105780;1289;58177;-72
2022/12/06 07:02:19;;;;;;;15.30;8.10;;;;;;;1.88;100.00;100918.77;105787;1289;58709;-72
2022/12/06 07:04:45;;;;;;;18.00;8.60;;;;;;;1.90;100.00;100923.48;105737;1291;58567;-72
2022/12/06 07:07:12;;;;;;;16.60;8.50;;;;;;;1.92;100.00;100924.71;105793;1289;58530;-72
2022/12/06 07:09:46;;;;;;;21.40;9.30;;;;;;;1.94;100.00;100925.04;105646;1292;73338;-72
2022/12/06 07:12:13;;;;;;;22.30;9.00;;;;;;;1.96;100.00;100928.59;105409;1289;58307;-72
2022/12/06 07:14:39;;;;;;;25.20;9.90;;;;;;;1.97;100.00;100936.19;103703;1291;60144;-72
2022/12/06 07:17:06;;;;;;;20.70;9.70;;;;;;;2.00;100.00;100939.65;103113;1283;60706;-72
2022/12/06 07:19:32;;;;;;;22.40;9.60;;;;;;;2.03;100.00;100940.80;104159;1291;60483;-72
2022/12/06 07:21:58;;;;;;;17.20;9.40;;;;;;;2.02;100.00;100942.77;103470;1289;60427;-72
2022/12/06 07:24:25;;;;;;;20.80;9.80;;;;;;;2.01;100.00;100943.54;104355;1295;60470;-71
2022/12/06 07:26:51;;;;;;;23.30;9.60;;;;;;;2.03;100.00;100945.55;103731;1297;60463;-72
2022/12/06 07:29:18;;;;;;;30.80;11.40;;;;;;;2.05;100.00;100950.61;103515;1297;61616;-72
2022/12/06 07:31:44;;;;;;;19.30;10.00;;;;;;;2.07;100.00;100950.16;102806;1293;60637;-72
2022/12/06 07:34:11;;;;;;;23.40;10.50;;;;;;;2.09;100.00;100955.71;103429;1291;60595;-72
2022/12/06 07:36:37;;;;;;;19.20;10.00;;;;;;;2.12;100.00;100949.45;103651;1295;60465;-72
2022/12/06 07:39:04;;;;;;;23.40;10.40;;;;;;;2.13;100.00;100953.55;103713;1281;60560;-73
2022/12/06 07:47:06;;;;;;;38.90;12.20;;;;;;;2.20;100.00;100951.83;103114;1285;72435;-72
2022/12/06 07:49:33;;;;;;;29.60;11.50;;;;;;;2.21;100.00;100952.97;103423;1298;60594;-72
2022/12/06 07:51:59;;;;;;;32.90;11.30;;;;;;;2.22;100.00;100949.16;103118;1291;60361;-72
2022/12/06 07:54:26;;;;;;;29.70;11.20;;;;;;;2.25;100.00;100951.58;103431;1296;60481;-72
2022/12/06 07:56:55;;;;;;;29.10;11.70;;;;;;;2.27;100.00;100952.66;103841;1297;60446;-71
2022/12/06 07:59:22;;;;;;;51.40;15.80;;;;;;;2.25;100.00;100948.64;103460;1296;72726;-70
2022/12/06 08:01:50;;;;;;;34.80;12.70;;;;;;;2.28;100.00;100950.84;103439;1294;62116;-71
2022/12/06 08:04:17;;;;;;;37.20;12.60;;;;;;;2.28;100.00;100952.80;103812;1299;60353;-71
2022/12/06 08:06:44;;;;;;;46.70;13.10;;;;;;;2.27;100.00;100952.33;103164;1302;72665;-71
2022/12/06 08:09:11;;;;;;;52.00;14.10;;;;;;;2.28;100.00;100955.19;103038;1290;68817;-72
2022/12/06 08:11:38;;;;;;;34.80;12.60;;;;;;;2.29;100.00;100957.05;103062;1302;70699;-71
2022/12/06 08:14:04;;;;;;;51.40;12.60;;;;;;;2.29;100.00;100958.09;103316;1301;60583;-72
2022/12/06 08:16:31;;;;;;;27.70;11.60;;;;;;;2.31;100.00;100954.07;103754;1296;60355;-71
2022/12/06 08:18:58;;;;;;;27.10;12.10;;;;;;;2.35;100.00;100957.52;103872;1293;75719;-71
2022/12/06 08:21:25;;;;;;;30.60;12.40;;;;;;;2.38;100.00;100957.57;103341;1299;71177;-70
2022/12/06 08:23:53;;;;;;;31.40;13.00;;;;;;;2.41;100.00;100964.50;103584;1295;72495;-71
2022/12/06 08:26:20;;;;;;;26.10;12.70;;;;;;;2.47;100.00;100967.77;103040;1290;61688;-71
2022/12/06 08:28:47;;;;;;;40.80;14.60;;;;;;;2.49;100.00;100967.27;103027;1297;61010;-71
2022/12/06 08:31:20;;;;;;;31.90;13.90;;;;;;;2.51;100.00;100970.40;103265;1294;73714;-71
2022/12/06 08:33:47;;;;;;;31.20;13.80;;;;;;;2.55;100.00;100970.29;103954;1300;69805;-71
2022/12/06 08:36:16;;;;;;;29.20;13.00;;;;;;;2.58;100.00;100971.96;103616;1297;71500;-71
2022/12/06 08:38:43;;;;;;;27.10;13.50;;;;;;;2.62;100.00;100967.98;103507;1291;60430;-71
2022/12/06 08:41:54;;;;;;;33.20;12.80;;;;;;;2.65;100.00;100975.98;103802;1300;60394;-71
2022/12/06 08:43:58;;;;;;;31.70;13.30;;;;;;;2.68;100.00;100973.69;103558;1294;72295;-70
2022/12/06 08:46:26;;;;;;;26.70;11.90;;;;;;;2.69;100.00;100967.62;103085;1299;70362;-72
2022/12/06 08:48:53;;;;;;;40.20;14.00;;;;;;;2.69;100.00;100968.52;102840;1296;71823;-71
2022/12/06 08:51:20;;;;;;;30.40;11.80;;;;;;;2.72;100.00;100968.48;103598;1302;61271;-71
2022/12/06 08:53:46;;;;;;;30.50;12.10;;;;;;;2.75;100.00;100972.06;103817;1290;63369;-70
2022/12/06 08:56:13;;;;;;;31.90;13.70;;;;;;;2.74;100.00;100972.66;104071;1293;60592;-70
2022/12/06 08:58:40;;;;;;;34.30;14.10;;;;;;;2.76;100.00;100976.55;103116;1300;69943;-71
2022/12/06 09:01:16;;;;;;;29.20;12.90;;;;;;;2.78;100.00;100976.89;103357;1301;60472;-70
2022/12/06 09:03:42;;;;;;;33.10;14.10;;;;;;;2.78;100.00;100982.18;102995;1297;61396;-70
2022/12/06 09:06:10;;;;;;;28.80;12.20;;;;;;;2.78;100.00;100979.73;103388;1291;60390;-70
2022/12/06 09:08:37;;;;;;;36.60;12.90;;;;;;;2.78;100.00;100979.54;102609;1301;72352;-70
2022/12/06 09:11:05;;;;;;;30.80;12.50;;;;;;;2.82;100.00;100983.45;103517;1297;69657;-71
2022/12/06 09:13:34;;;;;;;29.00;12.40;;;;;;;2.84;100.00;100984.98;104399;1294;72449;-71
2022/12/06 09:16:05;;;;;;;34.60;13.40;;;;;;;2.85;100.00;100988.55;103327;1293;60477;-70
2022/12/06 09:18:33;;;;;;;35.00;14.60;;;;;;;2.86;100.00;100986.41;103052;1300;60487;-70
2022/12/06 09:21:04;;;;;;;34.00;14.10;;;;;;;2.88;100.00;100986.65;103497;1293;72292;-71
2022/12/06 09:23:31;;;;;;;51.90;17.50;;;;;;;2.89;100.00;100987.46;102953;1285;70606;-71
2022/12/06 09:25:58;;;;;;;40.90;16.70;;;;;;;2.92;100.00;100985.85;102965;1299;71399;-71
2022/12/06 09:28:24;;;;;;;37.80;15.90;;;;;;;2.94;100.00;100988.13;102998;1295;60870;-71
2022/12/06 09:30:51;;;;;;;35.70;16.20;;;;;;;2.98;100.00;100987.29;104058;1292;60390;-71
2022/12/06 09:33:17;;;;;;;39.20;15.70;;;;;;;3.02;100.00;100992.02;105199;1291;58456;-71
2022/12/06 09:35:44;;;;;;;36.80;15.10;;;;;;;3.05;100.00;100989.34;104147;1293;60550;-70
2022/12/06 09:38:10;;;;;;;34.10;13.40;;;;;;;3.06;100.00;100985.45;103184;1301;60553;-69
2022/12/06 09:41:08;;;;;;;40.20;15.40;;;;;;;3.07;100.00;100987.96;103682;1301;60596;-70
2022/12/06 09:43:44;;;;;;;34.80;13.50;;;;;;;3.08;100.00;100984.73;103033;1301;60419;-70
2022/12/06 09:46:35;;;;;;;47.10;14.90;;;;;;;3.08;100.00;100985.81;103392;1291;73629;-71
2022/12/06 09:49:29;;;;;;;34.10;14.00;;;;;;;3.10;100.00;100986.88;103649;1299;69940;-72
2022/12/06 09:52:49;;;;;;;26.80;12.90;;;;;;;3.14;100.00;100980.96;103087;1299;72523;-70
2022/12/06 09:55:31;;;;;;;37.00;16.00;;;;;;;3.17;100.00;100979.45;102405;1305;62046;-70
2022/12/06 09:58:21;;;;;;;30.10;13.20;;;;;;;3.20;100.00;100978.00;103553;1301;60632;-70
2022/12/06 10:01:10;;;;;;;31.50;13.90;;;;;;;3.25;100.00;100982.52;104586;1292;73482;-70
2022/12/06 10:04:03;;;;;;;41.10;15.20;;;;;;;3.27;100.00;100983.46;102705;1301;69642;-71
2022/12/06 10:06:39;;;;;;;31.00;12.70;;;;;;;3.29;100.00;100978.95;104317;1294;72684;-71
2022/12/06 10:09:50;;;;;;;30.70;12.70;;;;;;;3.31;100.00;100974.42;104041;1300;61419;-71
2022/12/06 10:12:55;;;;;;;45.90;16.80;;;;;;;3.33;100.00;100977.59;103505;1299;60346;-70
2022/12/06 10:15:37;;;;;;;57.20;18.80;;;;;;;3.34;100.00;100972.22;103278;1289;72379;-70
2022/12/06 10:18:23;;;;;;;37.50;15.50;;;;;;;3.36;100.00;100977.34;103315;1299;72134;-70
2022/12/06 10:21:05;;;;;;;30.80;14.30;;;;;;;3.36;100.00;100972.11;103333;1290;72448;-70
2022/12/06 10:23:53;;;;;;;33.90;15.00;;;;;;;3.40;100.00;100971.23;103507;1283;61051;-69
2022/12/06 10:26:50;;;;;;;34.40;15.20;;;;;;;3.39;100.00;100970.10;103959;1291;60433;-69
2022/12/06 10:29:35;;;;;;;30.40;13.10;;;;;;;3.36;100.00;100965.64;103469;1291;72918;-70
2022/12/06 10:32:17;;;;;;;31.50;14.70;;;;;;;3.37;100.00;100966.56;102941;1291;68643;-71
2022/12/06 10:34:55;;;;;;;48.60;15.80;;;;;;;3.39;100.00;100968.72;103040;1293;71175;-70
2022/12/06 10:37:40;;;;;;;36.60;14.30;;;;;;;3.39;100.00;100959.08;103284;1297;60471;-71
2022/12/06 10:40:34;;;;;;;42.20;15.80;;;;;;;3.43;100.00;100961.91;103034;1295;60584;-71
2022/12/06 10:43:25;;;;;;;24.90;12.60;;;;;;;3.42;100.00;100965.81;103198;1301;73427;-70
2022/12/06 10:49:00;;;;;;;28.70;14.30;;;;;;;3.46;100.00;100958.33;103048;1300;73275;-69
2022/12/06 10:51:49;;;;;;;27.00;12.30;;;;;;;3.48;100.00;100958.68;102874;1299;60915;-70
2022/12/06 10:54:29;;;;;;;18.90;9.80;;;;;;;3.49;100.00;100953.56;103246;1299;60868;-69
2022/12/06 10:57:01;;;;;;;19.10;10.50;;;;;;;3.49;100.00;100950.80;103469;1292;72649;-69
2022/12/06 10:59:50;;;;;;;26.40;11.40;;;;;;;3.52;100.00;100952.59;103482;1290;69709;-69
2022/12/06 11:02:37;;;;;;;26.00;11.00;;;;;;;3.54;100.00;100954.56;102931;1299;71419;-70
2022/12/06 11:05:13;;;;;;;21.10;9.70;;;;;;;3.54;100.00;100957.55;103618;1285;60905;-70
2022/12/06 11:07:45;;;;;;;19.00;10.10;;;;;;;3.55;100.00;100954.61;102994;1294;60411;-69
2022/12/06 11:10:23;;;;;;;14.80;9.20;;;;;;;3.56;100.00;100955.27;103162;1297;73917;-71
2022/12/06 11:12:57;;;;;;;17.20;9.30;;;;;;;3.58;100.00;100952.33;103457;1294;71034;-69
2022/12/06 11:15:34;;;;;;;18.20;10.50;;;;;;;3.61;100.00;100950.81;103356;1280;72929;-70
2022/12/06 11:18:11;;;;;;;24.50;11.20;;;;;;;3.64;100.00;100952.70;103513;1293;60624;-69
2022/12/06 11:20:49;;;;;;;26.70;11.60;;;;;;;3.65;100.00;100949.27;103233;1295;61072;-71
2022/12/06 11:23:38;;;;;;;24.60;10.10;;;;;;;3.65;100.00;100946.14;103778;1297;72460;-70
2022/12/06 11:26:10;;;;;;;18.40;8.80;;;;;;;3.62;100.00;100943.92;103751;1293;68902;-70
2022/12/06 11:28:48;;;;;;;18.10;9.60;;;;;;;3.63;100.00;100944.23;102938;1287;71544;-71
2022/12/06 11:31:25;;;;;;;14.40;8.10;;;;;;;3.65;100.00;100941.61;102912;1299;61144;-70
2022/12/06 11:33:53;;;;;;;11.50;6.40;;;;;;;3.65;100.00;100942.97;103379;1299;60891;-70
2022/12/06 11:36:22;;;;;;;9.80;6.10;;;;;;;3.69;100.00;100939.52;103270;1285;74064;-70
2022/12/06 11:38:48;;;;;;;7.50;4.60;;;;;;;3.72;100.00;100938.77;103113;1299;68686;-70
2022/12/06 11:41:29;;;;;;;8.80;4.90;;;;;;;3.71;100.00;100941.89;103234;1292;60905;-71
2022/12/06 11:43:57;;;;;;;8.00;5.20;;;;;;;3.70;100.00;100935.25;103611;1293;60564;-70
2022/12/06 11:46:24;;;;;;;9.10;5.40;;;;;;;3.71;100.00;100935.04;102919;1296;60422;-72
2022/12/06 11:48:52;;;;;;;7.40;4.80;;;;;;;3.74;100.00;100932.82;103241;1296;73920;-70
2022/12/06 11:51:22;;;;;;;8.60;4.70;;;;;;;3.76;100.00;100934.26;102926;1293;71127;-70
2022/12/06 11:54:11;;;;;;;7.60;4.10;;;;;;;3.76;100.00;100932.33;103976;1293;71675;-70
2022/12/06 11:56:38;;;;;;;6.30;3.60;;;;;;;3.74;100.00;100934.79;102685;1299;61316;-70
2022/12/06 11:59:27;;;;;;;6.20;3.60;;;;;;;3.70;100.00;100932.11;103017;1299;61335;-70